sensor_id;sensor_type;location;lat;lon;timestamp;temperature;humidity
26037;DHT22;13810;48.376;10.944;2023-08-12T00:00:15;17.00;99.90
26037;DHT22;13810;48.376;10.944;2023-08-12T00:00:46;16.90;99.90
26037;DHT22;13810;48.376;10.944;2023-08-12T00:01:17;16.90;99.90
26037;DHT22;13810;48.376;10.944;2023-08-12T00:01:51;16.90;99.90
26037;DHT22;13810;48.376;10.944;2023-08-12T00:02:22;16.90;99.90
26037;DHT22;13810;48.376;10.944;2023-08-12T00:02:52;16.90;99.90
26037;DHT22;13810;48.376;10.944;2023-08-12T00:03:23;16.90;99.90
26037;DHT22;13810;48.376;10.944;2023-08-12T00:03:57;16.90;99.90
26037;DHT22;13810;48.376;10.944;2023-08-12T00:04:27;16.90;99.90
26037;DHT22;13810;48.376;10.944;2023-08-12T00:04:58;16.90;99.90
26037;DHT22;13810;48.376;10.944;2023-08-12T00:05:28;16.90;99.90
26037;DHT22;13810;48.376;10.944;2023-08-12T00:06:00;16.80;99.90
26037;DHT22;13810;48.376;10.944;2023-08-12T00:06:32;16.80;99.90
26037;DHT22;13810;48.376;10.944;2023-08-12T00:07:02;16.80;99.90
26037;DHT22;13810;48.376;10.944;2023-08-12T00:07:33;16.80;99.90
26037;DHT22;13810;48.376;10.944;2023-08-12T00:08:04;16.80;99.90
26037;DHT22;13810;48.376;10.944;2023-08-12T00:08:35;16.80;99.90
26037;DHT22;13810;48.376;10.944;2023-08-12T00:09:06;16.80;99.90
26037;DHT22;13810;48.376;10.944;2023-08-12T00:09:37;16.80;99.90
26037;DHT22;13810;48.376;10.944;2023-08-12T00:10:09;16.70;99.90
26037;DHT22;13810;48.376;10.944;2023-08-12T00:10:40;16.70;99.90
26037;DHT22;13810;48.376;10.944;2023-08-12T00:11:10;16.70;99.90
26037;DHT22;13810;48.376;10.944;2023-08-12T00:11:41;16.70;99.90
26037;DHT22;13810;48.376;10.944;2023-08-12T00:12:12;16.70;99.90
26037;DHT22;13810;48.376;10.944;2023-08-12T00:12:42;16.70;99.90
26037;DHT22;13810;48.376;10.944;2023-08-12T00:13:13;16.70;99.90
26037;DHT22;13810;48.376;10.944;2023-08-12T00:13:47;16.70;99.90
26037;DHT22;13810;48.376;10.944;2023-08-12T00:14:18;16.70;99.90
26037;DHT22;13810;48.376;10.944;2023-08-12T00:14:49;16.70;99.90
26037;DHT22;13810;48.376;10.944;2023-08-12T00:15:20;16.70;99.90
26037;DHT22;13810;48.376;10.944;2023-08-12T00:15:52;16.70;99.90
26037;DHT22;13810;48.376;10.944;2023-08-12T00:16:22;16.70;99.90
26037;DHT22;13810;48.376;10.944;2023-08-12T00:16:53;16.70;99.90
26037;DHT22;13810;48.376;10.944;2023-08-12T00:17:24;16.70;99.90
26037;DHT22;13810;48.376;10.944;2023-08-12T00:17:54;16.70;99.90
26037;DHT22;13810;48.376;10.944;2023-08-12T00:18:25;16.70;99.90
26037;DHT22;13810;48.376;10.944;2023-08-12T00:18:56;16.70;99.90
26037;DHT22;13810;48.376;10.944;2023-08-12T00:19:26;16.70;99.90
26037;DHT22;13810;48.376;10.944;2023-08-12T00:19:57;16.70;99.90
26037;DHT22;13810;48.376;10.944;2023-08-12T00:20:28;16.70;99.90
26037;DHT22;13810;48.376;10.944;2023-08-12T00:20:58;16.60;99.90
26037;DHT22;13810;48.376;10.944;2023-08-12T00:21:29;16.60;99.90
26037;DHT22;13810;48.376;10.944;2023-08-12T00:22:00;16.60;99.90
26037;DHT22;13810;48.376;10.944;2023-08-12T00:22:31;16.60;99.90
26037;DHT22;13810;48.376;10.944;2023-08-12T00:23:01;16.60;99.90
26037;DHT22;13810;48.376;10.944;2023-08-12T00:23:38;16.60;99.90
26037;DHT22;13810;48.376;10.944;2023-08-12T00:24:13;16.60;99.90
26037;DHT22;13810;48.376;10.944;2023-08-12T00:24:44;16.60;99.90
26037;DHT22;13810;48.376;10.944;2023-08-12T00:25:15;16.50;99.90
26037;DHT22;13810;48.376;10.944;2023-08-12T00:25:45;16.60;99.90
26037;DHT22;13810;48.376;10.944;2023-08-12T00:26:16;16.50;99.90
26037;DHT22;13810;48.376;10.944;2023-08-12T00:26:47;16.50;99.90
26037;DHT22;13810;48.376;10.944;2023-08-12T00:27:18;16.60;99.90
26037;DHT22;13810;48.376;10.944;2023-08-12T00:27:48;16.50;99.90
26037;DHT22;13810;48.376;10.944;2023-08-12T00:28:19;16.50;99.90
26037;DHT22;13810;48.376;10.944;2023-08-12T00:28:49;16.50;99.90
26037;DHT22;13810;48.376;10.944;2023-08-12T00:29:21;16.50;99.90
26037;DHT22;13810;48.376;10.944;2023-08-12T00:29:51;16.50;99.90
26037;DHT22;13810;48.376;10.944;2023-08-12T00:30:22;16.50;99.90
26037;DHT22;13810;48.376;10.944;2023-08-12T00:30:52;16.50;99.90
26037;DHT22;13810;48.376;10.944;2023-08-12T00:31:23;16.50;99.90
26037;DHT22;13810;48.376;10.944;2023-08-12T00:31:54;16.50;99.90
26037;DHT22;13810;48.376;10.944;2023-08-12T00:32:26;16.50;99.90
26037;DHT22;13810;48.376;10.944;2023-08-12T00:32:57;16.50;99.90
26037;DHT22;13810;48.376;10.944;2023-08-12T00:33:27;16.50;99.90
26037;DHT22;13810;48.376;10.944;2023-08-12T00:33:58;16.40;99.90
26037;DHT22;13810;48.376;10.944;2023-08-12T00:34:29;16.40;99.90
26037;DHT22;13810;48.376;10.944;2023-08-12T00:34:59;16.40;99.90
26037;DHT22;13810;48.376;10.944;2023-08-12T00:35:30;16.40;99.90
26037;DHT22;13810;48.376;10.944;2023-08-12T00:36:01;16.40;99.90
26037;DHT22;13810;48.376;10.944;2023-08-12T00:36:31;16.40;99.90
26037;DHT22;13810;48.376;10.944;2023-08-12T00:37:02;16.40;99.90
26037;DHT22;13810;48.376;10.944;2023-08-12T00:37:33;16.40;99.90
26037;DHT22;13810;48.376;10.944;2023-08-12T00:38:03;16.40;99.90
26037;DHT22;13810;48.376;10.944;2023-08-12T00:38:34;16.40;99.90
26037;DHT22;13810;48.376;10.944;2023-08-12T00:39:04;16.30;99.90
26037;DHT22;13810;48.376;10.944;2023-08-12T00:39:35;16.40;99.90
26037;DHT22;13810;48.376;10.944;2023-08-12T00:40:06;16.30;99.90
26037;DHT22;13810;48.376;10.944;2023-08-12T00:40:37;16.30;99.90
26037;DHT22;13810;48.376;10.944;2023-08-12T00:41:08;16.30;99.90
26037;DHT22;13810;48.376;10.944;2023-08-12T00:41:38;16.30;99.90
26037;DHT22;13810;48.376;10.944;2023-08-12T00:42:09;16.30;99.90
26037;DHT22;13810;48.376;10.944;2023-08-12T00:42:39;16.30;99.90
26037;DHT22;13810;48.376;10.944;2023-08-12T00:43:10;16.30;99.90
26037;DHT22;13810;48.376;10.944;2023-08-12T00:43:41;16.30;99.90
26037;DHT22;13810;48.376;10.944;2023-08-12T00:44:12;16.30;99.90
26037;DHT22;13810;48.376;10.944;2023-08-12T00:44:43;16.30;99.90
26037;DHT22;13810;48.376;10.944;2023-08-12T00:45:13;16.30;99.90
26037;DHT22;13810;48.376;10.944;2023-08-12T00:45:44;16.30;99.90
26037;DHT22;13810;48.376;10.944;2023-08-12T00:46:15;16.30;99.90
26037;DHT22;13810;48.376;10.944;2023-08-12T00:46:46;16.30;99.90
26037;DHT22;13810;48.376;10.944;2023-08-12T00:47:17;16.30;99.90
26037;DHT22;13810;48.376;10.944;2023-08-12T00:47:47;16.30;99.90
26037;DHT22;13810;48.376;10.944;2023-08-12T00:48:18;16.30;99.90
26037;DHT22;13810;48.376;10.944;2023-08-12T00:48:49;16.20;99.90
26037;DHT22;13810;48.376;10.944;2023-08-12T00:49:19;16.20;99.90
26037;DHT22;13810;48.376;10.944;2023-08-12T00:49:50;16.20;99.90
26037;DHT22;13810;48.376;10.944;2023-08-12T00:50:21;16.20;99.90
26037;DHT22;13810;48.376;10.944;2023-08-12T00:50:52;16.20;99.90
26037;DHT22;13810;48.376;10.944;2023-08-12T00:51:23;16.20;99.90
26037;DHT22;13810;48.376;10.944;2023-08-12T00:51:54;16.20;99.90
26037;DHT22;13810;48.376;10.944;2023-08-12T00:52:25;16.20;99.90
26037;DHT22;13810;48.376;10.944;2023-08-12T00:52:58;16.20;99.90
26037;DHT22;13810;48.376;10.944;2023-08-12T00:53:31;16.20;99.90
26037;DHT22;13810;48.376;10.944;2023-08-12T00:54:04;16.20;99.90
26037;DHT22;13810;48.376;10.944;2023-08-12T00:54:35;16.20;99.90
26037;DHT22;13810;48.376;10.944;2023-08-12T00:55:06;16.20;99.90
26037;DHT22;13810;48.376;10.944;2023-08-12T00:55:37;16.20;99.90
26037;DHT22;13810;48.376;10.944;2023-08-12T00:56:08;16.20;99.90
26037;DHT22;13810;48.376;10.944;2023-08-12T00:56:40;16.10;99.90
26037;DHT22;13810;48.376;10.944;2023-08-12T00:57:11;16.20;99.90
26037;DHT22;13810;48.376;10.944;2023-08-12T00:57:42;16.10;99.90
26037;DHT22;13810;48.376;10.944;2023-08-12T00:58:13;16.10;99.90
26037;DHT22;13810;48.376;10.944;2023-08-12T00:58:43;16.10;99.90
26037;DHT22;13810;48.376;10.944;2023-08-12T00:59:16;16.10;99.90
26037;DHT22;13810;48.376;10.944;2023-08-12T00:59:48;16.10;99.90
26037;DHT22;13810;48.376;10.944;2023-08-12T01:00:19;16.10;99.90
26037;DHT22;13810;48.376;10.944;2023-08-12T01:00:51;16.10;99.90
26037;DHT22;13810;48.376;10.944;2023-08-12T01:01:22;16.10;99.90
26037;DHT22;13810;48.376;10.944;2023-08-12T01:01:52;16.10;99.90
26037;DHT22;13810;48.376;10.944;2023-08-12T01:02:23;16.10;99.90
26037;DHT22;13810;48.376;10.944;2023-08-12T01:02:56;16.10;99.90
26037;DHT22;13810;48.376;10.944;2023-08-12T01:03:27;16.10;99.90
26037;DHT22;13810;48.376;10.944;2023-08-12T01:03:58;16.10;99.90
26037;DHT22;13810;48.376;10.944;2023-08-12T01:04:28;16.10;99.90
26037;DHT22;13810;48.376;10.944;2023-08-12T01:04:59;16.10;99.90
26037;DHT22;13810;48.376;10.944;2023-08-12T01:05:30;16.00;99.90
26037;DHT22;13810;48.376;10.944;2023-08-12T01:06:00;16.00;99.90
26037;DHT22;13810;48.376;10.944;2023-08-12T01:06:32;16.00;99.90
26037;DHT22;13810;48.376;10.944;2023-08-12T01:07:02;16.00;99.90
26037;DHT22;13810;48.376;10.944;2023-08-12T01:07:34;16.00;99.90
26037;DHT22;13810;48.376;10.944;2023-08-12T01:08:04;16.10;99.90
26037;DHT22;13810;48.376;10.944;2023-08-12T01:08:35;16.10;99.90
26037;DHT22;13810;48.376;10.944;2023-08-12T01:09:06;16.10;99.90
26037;DHT22;13810;48.376;10.944;2023-08-12T01:09:37;16.10;99.90
26037;DHT22;13810;48.376;10.944;2023-08-12T01:10:08;16.00;99.90
26037;DHT22;13810;48.376;10.944;2023-08-12T01:10:49;16.00;99.90
26037;DHT22;13810;48.376;10.944;2023-08-12T01:12:31;16.00;99.90
26037;DHT22;13810;48.376;10.944;2023-08-12T01:13:46;16.00;99.90
26037;DHT22;13810;48.376;10.944;2023-08-12T01:14:27;16.00;99.90
26037;DHT22;13810;48.376;10.944;2023-08-12T01:15:16;16.00;99.90
26037;DHT22;13810;48.376;10.944;2023-08-12T01:15:49;16.00;99.90
26037;DHT22;13810;48.376;10.944;2023-08-12T01:16:22;16.00;99.90
26037;DHT22;13810;48.376;10.944;2023-08-12T01:17:00;16.10;99.90
26037;DHT22;13810;48.376;10.944;2023-08-12T01:17:33;16.00;99.90
26037;DHT22;13810;48.376;10.944;2023-08-12T01:18:06;16.00;99.90
26037;DHT22;13810;48.376;10.944;2023-08-12T01:18:38;16.00;99.90
26037;DHT22;13810;48.376;10.944;2023-08-12T01:19:20;16.00;99.90
26037;DHT22;13810;48.376;10.944;2023-08-12T01:19:54;16.00;99.90
26037;DHT22;13810;48.376;10.944;2023-08-12T01:20:26;16.00;99.90
26037;DHT22;13810;48.376;10.944;2023-08-12T01:20:58;16.00;99.90
26037;DHT22;13810;48.376;10.944;2023-08-12T01:21:30;16.00;99.90
26037;DHT22;13810;48.376;10.944;2023-08-12T01:22:02;16.00;99.90
26037;DHT22;13810;48.376;10.944;2023-08-12T01:22:34;15.90;99.90
26037;DHT22;13810;48.376;10.944;2023-08-12T01:23:13;15.90;99.90
26037;DHT22;13810;48.376;10.944;2023-08-12T01:23:44;15.90;99.90
26037;DHT22;13810;48.376;10.944;2023-08-12T01:24:15;15.90;99.90
26037;DHT22;13810;48.376;10.944;2023-08-12T01:24:46;15.90;99.90
26037;DHT22;13810;48.376;10.944;2023-08-12T01:25:16;15.90;99.90
26037;DHT22;13810;48.376;10.944;2023-08-12T01:25:47;15.90;99.90
26037;DHT22;13810;48.376;10.944;2023-08-12T01:26:17;15.90;99.90
26037;DHT22;13810;48.376;10.944;2023-08-12T01:26:48;15.90;99.90
26037;DHT22;13810;48.376;10.944;2023-08-12T01:27:19;15.90;99.90
26037;DHT22;13810;48.376;10.944;2023-08-12T01:27:50;15.90;99.90
26037;DHT22;13810;48.376;10.944;2023-08-12T01:28:21;15.90;99.90
26037;DHT22;13810;48.376;10.944;2023-08-12T01:28:52;15.90;99.90
26037;DHT22;13810;48.376;10.944;2023-08-12T01:29:23;15.90;99.90
26037;DHT22;13810;48.376;10.944;2023-08-12T01:29:54;15.80;99.90
26037;DHT22;13810;48.376;10.944;2023-08-12T01:30:25;15.80;99.90
26037;DHT22;13810;48.376;10.944;2023-08-12T01:31:18;15.80;99.90
26037;DHT22;13810;48.376;10.944;2023-08-12T01:31:55;15.80;99.90
26037;DHT22;13810;48.376;10.944;2023-08-12T01:33:11;15.80;99.90
26037;DHT22;13810;48.376;10.944;2023-08-12T01:34:12;15.80;99.90
26037;DHT22;13810;48.376;10.944;2023-08-12T01:34:47;15.80;99.90
26037;DHT22;13810;48.376;10.944;2023-08-12T01:36:27;15.70;99.90
26037;DHT22;13810;48.376;10.944;2023-08-12T01:37:00;15.70;99.90
26037;DHT22;13810;48.376;10.944;2023-08-12T01:37:36;15.70;99.90
26037;DHT22;13810;48.376;10.944;2023-08-12T01:38:08;15.70;99.90
26037;DHT22;13810;48.376;10.944;2023-08-12T01:38:40;15.70;99.90
26037;DHT22;13810;48.376;10.944;2023-08-12T01:39:12;15.70;99.90
26037;DHT22;13810;48.376;10.944;2023-08-12T01:39:45;15.70;99.90
26037;DHT22;13810;48.376;10.944;2023-08-12T01:40:17;15.70;99.90
26037;DHT22;13810;48.376;10.944;2023-08-12T01:40:49;15.70;99.90
26037;DHT22;13810;48.376;10.944;2023-08-12T01:41:21;15.70;99.90
26037;DHT22;13810;48.376;10.944;2023-08-12T01:41:54;15.70;99.90
26037;DHT22;13810;48.376;10.944;2023-08-12T01:42:27;15.60;99.90
26037;DHT22;13810;48.376;10.944;2023-08-12T01:42:58;15.60;99.90
26037;DHT22;13810;48.376;10.944;2023-08-12T01:43:29;15.60;99.90
26037;DHT22;13810;48.376;10.944;2023-08-12T01:44:02;15.60;99.90
26037;DHT22;13810;48.376;10.944;2023-08-12T01:44:33;15.60;99.90
26037;DHT22;13810;48.376;10.944;2023-08-12T01:45:04;15.60;99.90
26037;DHT22;13810;48.376;10.944;2023-08-12T01:45:35;15.60;99.90
26037;DHT22;13810;48.376;10.944;2023-08-12T01:46:06;15.60;99.90
26037;DHT22;13810;48.376;10.944;2023-08-12T01:46:36;15.60;99.90
26037;DHT22;13810;48.376;10.944;2023-08-12T01:47:08;15.60;99.90
26037;DHT22;13810;48.376;10.944;2023-08-12T01:47:43;15.60;99.90
26037;DHT22;13810;48.376;10.944;2023-08-12T01:48:13;15.60;99.90
26037;DHT22;13810;48.376;10.944;2023-08-12T01:48:44;15.60;99.90
26037;DHT22;13810;48.376;10.944;2023-08-12T01:49:15;15.60;99.90
26037;DHT22;13810;48.376;10.944;2023-08-12T01:49:45;15.60;99.90
26037;DHT22;13810;48.376;10.944;2023-08-12T01:50:16;15.50;99.90
26037;DHT22;13810;48.376;10.944;2023-08-12T01:50:47;15.50;99.90
26037;DHT22;13810;48.376;10.944;2023-08-12T01:51:18;15.50;99.90
26037;DHT22;13810;48.376;10.944;2023-08-12T01:51:49;15.60;99.90
26037;DHT22;13810;48.376;10.944;2023-08-12T01:52:19;15.50;99.90
26037;DHT22;13810;48.376;10.944;2023-08-12T01:52:50;15.50;99.90
26037;DHT22;13810;48.376;10.944;2023-08-12T01:53:20;15.50;99.90
26037;DHT22;13810;48.376;10.944;2023-08-12T01:53:51;15.50;99.90
26037;DHT22;13810;48.376;10.944;2023-08-12T01:54:22;15.50;99.90
26037;DHT22;13810;48.376;10.944;2023-08-12T01:54:52;15.50;99.90
26037;DHT22;13810;48.376;10.944;2023-08-12T01:55:23;15.50;99.90
26037;DHT22;13810;48.376;10.944;2023-08-12T01:55:54;15.50;99.90
26037;DHT22;13810;48.376;10.944;2023-08-12T01:56:24;15.50;99.90
26037;DHT22;13810;48.376;10.944;2023-08-12T01:56:55;15.50;99.90
26037;DHT22;13810;48.376;10.944;2023-08-12T01:57:25;15.50;99.90
26037;DHT22;13810;48.376;10.944;2023-08-12T01:57:56;15.50;99.90
26037;DHT22;13810;48.376;10.944;2023-08-12T01:58:27;15.50;99.90
26037;DHT22;13810;48.376;10.944;2023-08-12T01:58:57;15.50;99.90
26037;DHT22;13810;48.376;10.944;2023-08-12T01:59:28;15.50;99.90
26037;DHT22;13810;48.376;10.944;2023-08-12T02:00:00;15.50;99.90
26037;DHT22;13810;48.376;10.944;2023-08-12T02:00:31;15.50;99.90
26037;DHT22;13810;48.376;10.944;2023-08-12T02:01:02;15.50;99.90
26037;DHT22;13810;48.376;10.944;2023-08-12T02:01:32;15.50;99.90
26037;DHT22;13810;48.376;10.944;2023-08-12T02:02:03;15.50;99.90
26037;DHT22;13810;48.376;10.944;2023-08-12T02:02:34;15.50;99.90
26037;DHT22;13810;48.376;10.944;2023-08-12T02:03:04;15.50;99.90
26037;DHT22;13810;48.376;10.944;2023-08-12T02:03:35;15.50;99.90
26037;DHT22;13810;48.376;10.944;2023-08-12T02:04:06;15.50;99.90
26037;DHT22;13810;48.376;10.944;2023-08-12T02:04:37;15.50;99.90
26037;DHT22;13810;48.376;10.944;2023-08-12T02:05:08;15.50;99.90
26037;DHT22;13810;48.376;10.944;2023-08-12T02:05:38;15.50;99.90
26037;DHT22;13810;48.376;10.944;2023-08-12T02:06:09;15.40;99.90
26037;DHT22;13810;48.376;10.944;2023-08-12T02:06:39;15.40;99.90
26037;DHT22;13810;48.376;10.944;2023-08-12T02:07:10;15.40;99.90
26037;DHT22;13810;48.376;10.944;2023-08-12T02:07:41;15.40;99.90
26037;DHT22;13810;48.376;10.944;2023-08-12T02:08:13;15.40;99.90
26037;DHT22;13810;48.376;10.944;2023-08-12T02:08:43;15.40;99.90
26037;DHT22;13810;48.376;10.944;2023-08-12T02:09:14;15.40;99.90
26037;DHT22;13810;48.376;10.944;2023-08-12T02:09:44;15.40;99.90
26037;DHT22;13810;48.376;10.944;2023-08-12T02:10:15;15.40;99.90
26037;DHT22;13810;48.376;10.944;2023-08-12T02:10:46;15.40;99.90
26037;DHT22;13810;48.376;10.944;2023-08-12T02:11:16;15.30;99.90
26037;DHT22;13810;48.376;10.944;2023-08-12T02:11:47;15.40;99.90
26037;DHT22;13810;48.376;10.944;2023-08-12T02:12:17;15.40;99.90
26037;DHT22;13810;48.376;10.944;2023-08-12T02:12:48;15.40;99.90
26037;DHT22;13810;48.376;10.944;2023-08-12T02:13:19;15.40;99.90
26037;DHT22;13810;48.376;10.944;2023-08-12T02:13:50;15.30;99.90
26037;DHT22;13810;48.376;10.944;2023-08-12T02:14:21;15.30;99.90
26037;DHT22;13810;48.376;10.944;2023-08-12T02:14:51;15.30;99.90
26037;DHT22;13810;48.376;10.944;2023-08-12T02:15:22;15.30;99.90
26037;DHT22;13810;48.376;10.944;2023-08-12T02:15:53;15.40;99.90
26037;DHT22;13810;48.376;10.944;2023-08-12T02:16:23;15.40;99.90
26037;DHT22;13810;48.376;10.944;2023-08-12T02:16:54;15.30;99.90
26037;DHT22;13810;48.376;10.944;2023-08-12T02:17:24;15.30;99.90
26037;DHT22;13810;48.376;10.944;2023-08-12T02:17:55;15.40;99.90
26037;DHT22;13810;48.376;10.944;2023-08-12T02:18:26;15.40;99.90
26037;DHT22;13810;48.376;10.944;2023-08-12T02:18:56;15.30;99.90
26037;DHT22;13810;48.376;10.944;2023-08-12T02:19:27;15.30;99.90
26037;DHT22;13810;48.376;10.944;2023-08-12T02:19:58;15.30;99.90
26037;DHT22;13810;48.376;10.944;2023-08-12T02:20:28;15.40;99.90
26037;DHT22;13810;48.376;10.944;2023-08-12T02:20:59;15.30;99.90
26037;DHT22;13810;48.376;10.944;2023-08-12T02:21:29;15.30;99.90
26037;DHT22;13810;48.376;10.944;2023-08-12T02:22:01;15.30;99.90
26037;DHT22;13810;48.376;10.944;2023-08-12T02:22:33;15.30;99.90
26037;DHT22;13810;48.376;10.944;2023-08-12T02:23:04;15.30;99.90
26037;DHT22;13810;48.376;10.944;2023-08-12T02:23:35;15.30;99.90
26037;DHT22;13810;48.376;10.944;2023-08-12T02:24:06;15.30;99.90
26037;DHT22;13810;48.376;10.944;2023-08-12T02:24:36;15.20;99.90
26037;DHT22;13810;48.376;10.944;2023-08-12T02:25:07;15.20;99.90
26037;DHT22;13810;48.376;10.944;2023-08-12T02:25:38;15.20;99.90
26037;DHT22;13810;48.376;10.944;2023-08-12T02:26:09;15.20;99.90
26037;DHT22;13810;48.376;10.944;2023-08-12T02:26:39;15.20;99.90
26037;DHT22;13810;48.376;10.944;2023-08-12T02:27:10;15.20;99.90
26037;DHT22;13810;48.376;10.944;2023-08-12T02:27:40;15.20;99.90
26037;DHT22;13810;48.376;10.944;2023-08-12T02:28:11;15.20;99.90
26037;DHT22;13810;48.376;10.944;2023-08-12T02:28:42;15.20;99.90
26037;DHT22;13810;48.376;10.944;2023-08-12T02:29:12;15.20;99.90
26037;DHT22;13810;48.376;10.944;2023-08-12T02:29:43;15.20;99.90
26037;DHT22;13810;48.376;10.944;2023-08-12T02:30:14;15.20;99.90
26037;DHT22;13810;48.376;10.944;2023-08-12T02:30:44;15.20;99.90
26037;DHT22;13810;48.376;10.944;2023-08-12T02:31:15;15.20;99.90
26037;DHT22;13810;48.376;10.944;2023-08-12T02:31:46;15.20;99.90
26037;DHT22;13810;48.376;10.944;2023-08-12T02:32:16;15.20;99.90
26037;DHT22;13810;48.376;10.944;2023-08-12T02:32:47;15.20;99.90
26037;DHT22;13810;48.376;10.944;2023-08-12T02:33:18;15.20;99.90
26037;DHT22;13810;48.376;10.944;2023-08-12T02:33:48;15.20;99.90
26037;DHT22;13810;48.376;10.944;2023-08-12T02:34:19;15.10;99.90
26037;DHT22;13810;48.376;10.944;2023-08-12T02:34:50;15.20;99.90
26037;DHT22;13810;48.376;10.944;2023-08-12T02:35:21;15.20;99.90
26037;DHT22;13810;48.376;10.944;2023-08-12T02:35:54;15.20;99.90
26037;DHT22;13810;48.376;10.944;2023-08-12T02:36:25;15.20;99.90
26037;DHT22;13810;48.376;10.944;2023-08-12T02:36:57;15.10;99.90
26037;DHT22;13810;48.376;10.944;2023-08-12T02:37:27;15.10;99.90
26037;DHT22;13810;48.376;10.944;2023-08-12T02:37:58;15.10;99.90
26037;DHT22;13810;48.376;10.944;2023-08-12T02:38:28;15.20;99.90
26037;DHT22;13810;48.376;10.944;2023-08-12T02:38:59;15.10;99.90
26037;DHT22;13810;48.376;10.944;2023-08-12T02:39:30;15.10;99.90
26037;DHT22;13810;48.376;10.944;2023-08-12T02:40:00;15.10;99.90
26037;DHT22;13810;48.376;10.944;2023-08-12T02:40:35;15.10;99.90
26037;DHT22;13810;48.376;10.944;2023-08-12T02:41:05;15.10;99.90
26037;DHT22;13810;48.376;10.944;2023-08-12T02:41:36;15.10;99.90
26037;DHT22;13810;48.376;10.944;2023-08-12T02:42:06;15.10;99.90
26037;DHT22;13810;48.376;10.944;2023-08-12T02:42:37;15.10;99.90
26037;DHT22;13810;48.376;10.944;2023-08-12T02:43:08;15.10;99.90
26037;DHT22;13810;48.376;10.944;2023-08-12T02:43:41;15.10;99.90
26037;DHT22;13810;48.376;10.944;2023-08-12T02:44:11;15.10;99.90
26037;DHT22;13810;48.376;10.944;2023-08-12T02:44:42;15.10;99.90
26037;DHT22;13810;48.376;10.944;2023-08-12T02:45:12;15.10;99.90
26037;DHT22;13810;48.376;10.944;2023-08-12T02:45:43;15.10;99.90
26037;DHT22;13810;48.376;10.944;2023-08-12T02:46:14;15.00;99.90
26037;DHT22;13810;48.376;10.944;2023-08-12T02:46:45;15.00;99.90
26037;DHT22;13810;48.376;10.944;2023-08-12T02:47:16;15.00;99.90
26037;DHT22;13810;48.376;10.944;2023-08-12T02:47:47;15.00;99.90
26037;DHT22;13810;48.376;10.944;2023-08-12T02:48:17;15.00;99.90
26037;DHT22;13810;48.376;10.944;2023-08-12T02:48:48;15.00;99.90
26037;DHT22;13810;48.376;10.944;2023-08-12T02:49:19;15.00;99.90
26037;DHT22;13810;48.376;10.944;2023-08-12T02:49:49;15.10;99.90
26037;DHT22;13810;48.376;10.944;2023-08-12T02:50:20;15.10;99.90
26037;DHT22;13810;48.376;10.944;2023-08-12T02:50:50;15.00;99.90
26037;DHT22;13810;48.376;10.944;2023-08-12T02:51:21;15.00;99.90
26037;DHT22;13810;48.376;10.944;2023-08-12T02:51:52;15.00;99.90
26037;DHT22;13810;48.376;10.944;2023-08-12T02:52:22;15.00;99.90
26037;DHT22;13810;48.376;10.944;2023-08-12T02:52:53;15.00;99.90
26037;DHT22;13810;48.376;10.944;2023-08-12T02:53:23;15.00;99.90
26037;DHT22;13810;48.376;10.944;2023-08-12T02:53:54;15.00;99.90
26037;DHT22;13810;48.376;10.944;2023-08-12T02:54:25;15.00;99.90
26037;DHT22;13810;48.376;10.944;2023-08-12T02:54:55;15.00;99.90
26037;DHT22;13810;48.376;10.944;2023-08-12T02:55:26;15.00;99.90
26037;DHT22;13810;48.376;10.944;2023-08-12T02:55:57;15.00;99.90
26037;DHT22;13810;48.376;10.944;2023-08-12T02:56:27;15.00;99.90
26037;DHT22;13810;48.376;10.944;2023-08-12T02:56:58;15.00;99.90
26037;DHT22;13810;48.376;10.944;2023-08-12T02:57:29;15.00;99.90
26037;DHT22;13810;48.376;10.944;2023-08-12T02:58:02;15.00;99.90
26037;DHT22;13810;48.376;10.944;2023-08-12T02:58:33;15.00;99.90
26037;DHT22;13810;48.376;10.944;2023-08-12T02:59:04;15.00;99.90
26037;DHT22;13810;48.376;10.944;2023-08-12T02:59:35;15.00;99.90
26037;DHT22;13810;48.376;10.944;2023-08-12T03:00:06;15.00;99.90
26037;DHT22;13810;48.376;10.944;2023-08-12T03:00:41;15.10;99.90
26037;DHT22;13810;48.376;10.944;2023-08-12T03:01:14;15.10;99.90
26037;DHT22;13810;48.376;10.944;2023-08-12T03:01:44;15.00;99.90
26037;DHT22;13810;48.376;10.944;2023-08-12T03:02:15;15.10;99.90
26037;DHT22;13810;48.376;10.944;2023-08-12T03:02:46;15.00;99.90
26037;DHT22;13810;48.376;10.944;2023-08-12T03:03:17;15.00;99.90
26037;DHT22;13810;48.376;10.944;2023-08-12T03:03:47;15.00;99.90
26037;DHT22;13810;48.376;10.944;2023-08-12T03:04:18;15.00;99.90
26037;DHT22;13810;48.376;10.944;2023-08-12T03:04:49;15.00;99.90
26037;DHT22;13810;48.376;10.944;2023-08-12T03:05:20;15.00;99.90
26037;DHT22;13810;48.376;10.944;2023-08-12T03:05:50;15.00;99.90
26037;DHT22;13810;48.376;10.944;2023-08-12T03:06:21;15.00;99.90
26037;DHT22;13810;48.376;10.944;2023-08-12T03:06:52;15.00;99.90
26037;DHT22;13810;48.376;10.944;2023-08-12T03:07:23;15.00;99.90
26037;DHT22;13810;48.376;10.944;2023-08-12T03:07:54;15.00;99.90
26037;DHT22;13810;48.376;10.944;2023-08-12T03:08:24;15.00;99.90
26037;DHT22;13810;48.376;10.944;2023-08-12T03:08:55;15.00;99.90
26037;DHT22;13810;48.376;10.944;2023-08-12T03:09:26;15.00;99.90
26037;DHT22;13810;48.376;10.944;2023-08-12T03:09:56;15.00;99.90
26037;DHT22;13810;48.376;10.944;2023-08-12T03:10:27;15.00;99.90
26037;DHT22;13810;48.376;10.944;2023-08-12T03:10:59;14.90;99.90
26037;DHT22;13810;48.376;10.944;2023-08-12T03:11:30;14.90;99.90
26037;DHT22;13810;48.376;10.944;2023-08-12T03:12:00;14.90;99.90
26037;DHT22;13810;48.376;10.944;2023-08-12T03:12:33;14.90;99.90
26037;DHT22;13810;48.376;10.944;2023-08-12T03:13:03;14.90;99.90
26037;DHT22;13810;48.376;10.944;2023-08-12T03:13:34;14.90;99.90
26037;DHT22;13810;48.376;10.944;2023-08-12T03:14:05;14.90;99.90
26037;DHT22;13810;48.376;10.944;2023-08-12T03:14:35;14.90;99.90
26037;DHT22;13810;48.376;10.944;2023-08-12T03:15:07;14.90;99.90
26037;DHT22;13810;48.376;10.944;2023-08-12T03:15:40;14.90;99.90
26037;DHT22;13810;48.376;10.944;2023-08-12T03:16:12;14.90;99.90
26037;DHT22;13810;48.376;10.944;2023-08-12T03:16:44;14.90;99.90
26037;DHT22;13810;48.376;10.944;2023-08-12T03:17:15;14.90;99.90
26037;DHT22;13810;48.376;10.944;2023-08-12T03:17:45;14.90;99.90
26037;DHT22;13810;48.376;10.944;2023-08-12T03:18:16;14.90;99.90
26037;DHT22;13810;48.376;10.944;2023-08-12T03:18:46;14.90;99.90